createdAt,value
2019-04-26T00:00:10.169Z,1.07
2019-04-26T00:01:25.260Z,0.90
2019-04-26T00:02:42.979Z,1.00
2019-04-26T00:03:56.114Z,0.78
2019-04-26T00:05:10.210Z,1.37
2019-04-26T00:06:23.796Z,1.10
2019-04-26T00:07:36.868Z,1.10
2019-04-26T00:08:51.571Z,1.40
2019-04-26T00:10:07.129Z,0.90
2019-04-26T00:11:34.095Z,1.02
2019-04-26T00:12:48.808Z,1.10
2019-04-26T00:14:19.956Z,1.00
2019-04-26T00:15:37.503Z,1.03
2019-04-26T00:16:55.421Z,1.07
2019-04-26T00:18:08.868Z,1.30
2019-04-26T00:19:22.317Z,1.40
2019-04-26T00:20:35.767Z,1.10
2019-04-26T00:21:48.840Z,1.15
2019-04-26T00:23:02.087Z,1.62
2019-04-26T00:24:15.308Z,1.22
2019-04-26T00:25:28.392Z,1.57
2019-04-26T00:26:41.451Z,1.50
2019-04-26T00:27:54.559Z,1.15
2019-04-26T00:29:07.625Z,0.93
2019-04-26T00:30:21.281Z,1.27
2019-04-26T00:31:34.550Z,1.20
2019-04-26T00:32:47.628Z,1.40
2019-04-26T00:34:00.707Z,1.00
2019-04-26T00:35:14.037Z,1.30
2019-04-26T00:36:27.126Z,1.07
2019-04-26T00:37:40.195Z,1.47
2019-04-26T00:38:53.293Z,1.30
2019-04-26T00:40:06.380Z,0.95
2019-04-26T00:41:20.538Z,1.22
2019-04-26T00:42:33.672Z,1.20
2019-04-26T00:43:46.740Z,0.93
2019-04-26T00:44:59.838Z,1.30
2019-04-26T00:46:13.369Z,1.12
2019-04-26T00:47:26.464Z,1.27
2019-04-26T00:48:39.708Z,0.93
2019-04-26T00:49:52.803Z,0.85
2019-04-26T00:51:05.885Z,1.47
2019-04-26T00:52:19.487Z,1.30
2019-04-26T00:53:32.615Z,1.20
2019-04-26T00:54:45.920Z,1.07
2019-04-26T00:55:59.183Z,1.50
2019-04-26T00:57:12.247Z,1.30
2019-04-26T00:58:25.320Z,1.00
2019-04-26T00:59:38.464Z,0.82
2019-04-26T01:00:51.630Z,0.98
2019-04-26T01:02:09.258Z,1.27
2019-04-26T01:03:22.832Z,0.80
2019-04-26T01:04:35.968Z,1.10
2019-04-26T01:05:59.629Z,1.30
2019-04-26T01:07:03.920Z,1.45
2019-04-26T01:08:17.237Z,1.20
2019-04-26T01:09:30.307Z,1.32
2019-04-26T01:10:43.378Z,1.30
2019-04-26T01:11:56.479Z,1.27
2019-04-26T01:13:09.721Z,0.80
2019-04-26T01:14:22.789Z,1.30
2019-04-26T01:15:35.882Z,1.10
2019-04-26T01:16:49.019Z,0.90
2019-04-26T01:18:02.132Z,1.37
2019-04-26T01:19:15.952Z,1.20
2019-04-26T01:20:30.040Z,1.10
2019-04-26T01:21:44.752Z,1.30
2019-04-26T01:22:58.396Z,1.52
2019-04-26T01:24:11.477Z,1.30
2019-04-26T01:25:31.406Z,1.17
2019-04-26T01:26:44.498Z,1.50
2019-04-26T01:27:57.572Z,1.15
2019-04-26T01:29:12.289Z,1.22
2019-04-26T01:30:25.866Z,1.50
2019-04-26T01:31:49.631Z,1.50
2019-04-26T01:33:02.692Z,1.40
2019-04-26T01:34:15.936Z,1.27
2019-04-26T01:35:29.009Z,1.10
2019-04-26T01:36:42.081Z,1.10
2019-04-26T01:37:55.148Z,1.20
2019-04-26T01:39:09.964Z,1.00
2019-04-26T01:40:24.693Z,1.10
2019-04-26T01:41:39.397Z,1.32
2019-04-26T01:42:54.120Z,1.22
2019-04-26T01:44:14.850Z,1.10
2019-04-26T01:45:35.007Z,1.22
2019-04-26T01:46:49.637Z,1.30
2019-04-26T01:48:04.335Z,0.93
2019-04-26T01:49:17.584Z,1.00
2019-04-26T01:50:31.630Z,1.10
2019-04-26T01:51:49.352Z,1.05
2019-04-26T01:53:02.424Z,0.90
2019-04-26T01:54:15.860Z,1.42
2019-04-26T01:55:29.192Z,1.45
2019-04-26T01:56:42.316Z,1.00
2019-04-26T01:57:55.854Z,0.90
2019-04-26T01:59:08.997Z,1.02
2019-04-26T02:00:23.939Z,0.98
2019-04-26T02:01:55.149Z,1.07
2019-04-26T02:03:15.665Z,1.27
2019-04-26T02:04:30.368Z,0.85
2019-04-26T02:05:43.439Z,1.20
2019-04-26T02:06:56.509Z,1.65
2019-04-26T02:08:09.595Z,1.50
2019-04-26T02:09:22.999Z,1.32
2019-04-26T02:10:36.133Z,1.20
2019-04-26T02:11:49.209Z,1.10
2019-04-26T02:13:02.307Z,1.77
2019-04-26T02:14:15.372Z,1.40
2019-04-26T02:15:29.209Z,1.40
2019-04-26T02:16:42.365Z,1.50
2019-04-26T02:17:55.708Z,1.22
2019-04-26T02:19:08.804Z,1.07
2019-04-26T02:20:35.279Z,1.35
2019-04-26T02:21:58.563Z,1.37
2019-04-26T02:23:13.272Z,1.45
2019-04-26T02:24:28.070Z,1.55
2019-04-26T02:25:41.165Z,1.15
2019-04-26T02:26:54.300Z,1.70
2019-04-26T02:28:07.394Z,1.30
2019-04-26T02:29:25.289Z,1.20
2019-04-26T02:30:39.578Z,1.30
2019-04-26T02:31:53.718Z,1.25
2019-04-26T02:33:06.803Z,1.45
2019-04-26T02:34:19.877Z,1.85
2019-04-26T02:35:34.088Z,1.55
2019-04-26T02:36:57.749Z,1.60
2019-04-26T02:38:02.033Z,1.52
2019-04-26T02:39:16.438Z,1.35
2019-04-26T02:40:30.975Z,1.47
2019-04-26T02:41:44.930Z,1.35
2019-04-26T02:42:58.004Z,1.87
2019-04-26T02:44:11.081Z,1.65
2019-04-26T02:45:30.924Z,1.50
2019-04-26T02:46:46.527Z,1.80
2019-04-26T02:48:01.249Z,1.72
2019-04-26T02:49:33.040Z,1.55
2019-04-26T02:50:55.965Z,1.70
2019-04-26T02:52:16.616Z,1.77
2019-04-26T02:53:35.354Z,1.70
2019-04-26T02:55:02.575Z,1.72
2019-04-26T02:56:24.969Z,1.50
2019-04-26T02:57:45.637Z,1.55
2019-04-26T02:59:00.372Z,2.00
2019-04-26T03:00:13.834Z,1.80
2019-04-26T03:01:29.337Z,1.65
2019-04-26T03:02:41.705Z,1.92
2019-04-26T03:03:54.808Z,1.75
2019-04-26T03:05:08.047Z,2.17
2019-04-26T03:06:21.376Z,1.60
2019-04-26T03:07:42.817Z,1.70
2019-04-26T03:08:55.951Z,1.52
2019-04-26T03:10:09.071Z,1.60
2019-04-26T03:11:22.169Z,2.02
2019-04-26T03:12:36.126Z,1.77
2019-04-26T03:14:03.931Z,1.60
2019-04-26T03:15:19.341Z,1.50
2019-04-26T03:16:39.240Z,1.45
2019-04-26T03:17:58.417Z,1.77
2019-04-26T03:19:23.590Z,1.77
2019-04-26T03:20:38.348Z,1.85
2019-04-26T03:21:55.760Z,1.98
2019-04-26T03:23:10.470Z,1.87
2019-04-26T03:24:42.579Z,2.00
2019-04-26T03:25:57.413Z,2.02
2019-04-26T03:27:12.119Z,1.90
2019-04-26T03:28:29.559Z,1.98
2019-04-26T03:30:18.755Z,1.77
2019-04-26T03:31:24.697Z,1.82
2019-04-26T03:32:50.858Z,1.98
2019-04-26T03:34:07.857Z,1.55
2019-04-26T03:35:30.104Z,2.17
2019-04-26T03:36:51.952Z,1.82
2019-04-26T03:38:10.967Z,2.60
2019-04-26T03:39:27.324Z,1.87
2019-04-26T03:40:52.678Z,1.92
2019-04-26T03:42:14.549Z,1.80
2019-04-26T03:43:29.253Z,1.92
2019-04-26T03:44:46.864Z,1.90
2019-04-26T03:46:01.817Z,2.45
2019-04-26T03:47:16.601Z,1.80
2019-04-26T03:48:31.318Z,1.80
2019-04-26T03:50:02.380Z,1.92
2019-04-26T03:51:17.150Z,2.25
2019-04-26T03:52:48.429Z,1.85
2019-04-26T03:54:06.282Z,1.90
2019-04-26T03:55:24.004Z,2.15
2019-04-26T03:56:40.450Z,1.87
2019-04-26T03:57:57.660Z,2.25
2019-04-26T03:59:14.012Z,2.10
2019-04-26T04:00:46.884Z,1.85
2019-04-26T04:02:04.833Z,2.17
2019-04-26T04:03:26.850Z,1.80
2019-04-26T04:04:45.562Z,1.80
2019-04-26T04:06:00.861Z,2.20
2019-04-26T04:07:14.211Z,1.60
2019-04-26T04:08:31.965Z,1.95
2019-04-26T04:09:46.901Z,1.85
2019-04-26T04:11:01.598Z,2.40
2019-04-26T04:12:16.346Z,2.10
2019-04-26T04:13:40.738Z,1.92
2019-04-26T04:15:06.429Z,1.80
2019-04-26T04:16:36.818Z,2.20
2019-04-26T04:17:52.722Z,1.72
2019-04-26T04:19:24.039Z,1.72
2019-04-26T04:20:41.069Z,1.95
2019-04-26T04:21:57.094Z,1.95
2019-04-26T04:23:14.691Z,2.00
2019-04-26T04:24:29.336Z,2.00
2019-04-26T04:25:45.368Z,2.00
2019-04-26T04:27:00.727Z,1.95
2019-04-26T04:28:17.852Z,1.85
2019-04-26T04:29:42.627Z,1.52
2019-04-26T04:30:54.719Z,2.02
2019-04-26T04:32:15.231Z,1.95
2019-04-26T04:33:35.686Z,1.82
2019-04-26T04:34:50.388Z,1.65
2019-04-26T04:36:05.346Z,1.52
2019-04-26T04:37:18.414Z,1.75
2019-04-26T04:38:33.760Z,1.87
2019-04-26T04:39:53.299Z,2.10
2019-04-26T04:41:24.214Z,1.92
2019-04-26T04:42:43.671Z,1.87
2019-04-26T04:44:15.252Z,1.72
2019-04-26T04:45:41.973Z,1.98
2019-04-26T04:47:23.542Z,1.87
2019-04-26T04:48:44.582Z,1.98
2019-04-26T04:50:15.269Z,1.95
2019-04-26T04:51:36.018Z,1.90
2019-04-26T04:52:59.633Z,1.77
2019-04-26T04:54:13.874Z,2.35
2019-04-26T04:55:28.573Z,2.10
2019-04-26T04:56:59.861Z,2.33
2019-04-26T04:58:16.574Z,2.05
2019-04-26T04:59:31.376Z,1.80
2019-04-26T05:00:56.545Z,2.33
2019-04-26T05:02:15.855Z,1.90
2019-04-26T05:03:32.269Z,2.12
2019-04-26T05:04:48.935Z,2.37
2019-04-26T05:06:07.559Z,2.37
2019-04-26T05:07:27.884Z,2.08
2019-04-26T05:08:50.054Z,2.00
2019-04-26T05:10:10.465Z,2.58
2019-04-26T05:11:25.188Z,1.92
2019-04-26T05:12:39.875Z,2.15
2019-04-26T05:13:54.574Z,1.80
2019-04-26T05:15:13.628Z,2.27
2019-04-26T05:16:41.091Z,2.50
2019-04-26T05:17:57.946Z,2.67
2019-04-26T05:19:28.338Z,2.15
2019-04-26T05:20:51.824Z,2.58
2019-04-26T05:22:24.648Z,2.65
2019-04-26T05:23:55.672Z,2.37
2019-04-26T05:25:46.879Z,2.52
2019-04-26T05:28:33.281Z,2.00
2019-04-26T05:29:52.307Z,2.30
2019-04-26T05:31:11.503Z,2.20
2019-04-26T05:32:29.140Z,2.45
2019-04-26T05:33:47.784Z,2.67
2019-04-26T05:35:05.868Z,2.30
2019-04-26T05:36:26.387Z,2.02
2019-04-26T05:37:53.123Z,2.83
2019-04-26T05:39:10.757Z,2.25
2019-04-26T05:40:42.066Z,1.55
2019-04-26T05:42:13.217Z,1.95
2019-04-26T05:43:32.291Z,2.27
2019-04-26T05:45:06.461Z,2.80
2019-04-26T05:46:35.021Z,2.27
2019-04-26T05:48:10.703Z,2.30
2019-04-26T05:49:50.207Z,2.08
2019-04-26T05:51:23.744Z,1.90
2019-04-26T05:52:47.993Z,1.80
2019-04-26T05:54:06.938Z,1.55
2019-04-26T05:55:31.897Z,1.67
2019-04-26T05:56:51.655Z,1.80
2019-04-26T05:58:08.469Z,1.95
2019-04-26T05:59:28.857Z,2.00
2019-04-26T06:01:19.729Z,1.80
2019-04-26T06:02:38.796Z,1.85
2019-04-26T06:04:24.875Z,1.77
2019-04-26T06:05:46.937Z,1.75
2019-04-26T06:07:18.140Z,2.10
2019-04-26T06:08:40.437Z,2.02
2019-04-26T06:10:08.765Z,1.80
2019-04-26T06:11:28.028Z,2.12
2019-04-26T06:12:59.487Z,1.70
2019-04-26T06:14:33.645Z,2.15
2019-04-26T06:16:06.462Z,2.22
2019-04-26T06:17:37.038Z,2.08
2019-04-26T06:18:57.253Z,1.70
2019-04-26T06:20:28.531Z,1.60
2019-04-26T06:21:52.398Z,1.77
2019-04-26T06:23:19.274Z,2.02
2019-04-26T06:24:33.976Z,1.95
2019-04-26T06:26:03.352Z,1.75
2019-04-26T06:27:38.023Z,2.00
2019-04-26T06:28:53.100Z,1.60
2019-04-26T06:30:07.901Z,2.25
2019-04-26T06:31:22.600Z,1.82
2019-04-26T06:32:37.394Z,1.90
2019-04-26T06:33:58.774Z,2.20
2019-04-26T06:35:16.052Z,1.85
2019-04-26T06:36:31.228Z,2.42
2019-04-26T06:37:59.821Z,2.00
2019-04-26T06:39:19.125Z,2.20
2019-04-26T06:40:42.072Z,2.35
2019-04-26T06:42:09.757Z,2.30
2019-04-26T06:43:26.522Z,2.40
2019-04-26T06:44:42.525Z,1.90
2019-04-26T06:46:07.492Z,2.42
2019-04-26T06:47:49.206Z,1.85
2019-04-26T06:49:22.293Z,2.33
2019-04-26T06:50:47.189Z,2.12
2019-04-26T06:52:08.638Z,1.95
2019-04-26T06:54:35.887Z,2.33
2019-04-26T06:56:00.941Z,2.40
2019-04-26T06:57:23.072Z,1.77
2019-04-26T06:58:54.028Z,1.70
2019-04-26T07:00:10.161Z,2.02
2019-04-26T07:01:30.776Z,2.20
2019-04-26T07:02:48.398Z,2.37
2019-04-26T07:04:04.125Z,2.27
2019-04-26T07:05:36.935Z,2.37
2019-04-26T07:07:07.841Z,2.25
2019-04-26T07:08:25.252Z,2.20
2019-04-26T07:09:56.207Z,2.15
2019-04-26T07:11:15.404Z,1.95
2019-04-26T07:12:46.740Z,2.67
2019-04-26T07:14:04.758Z,1.85
2019-04-26T07:15:34.572Z,2.20
2019-04-26T07:16:54.956Z,2.65
2019-04-26T07:18:10.760Z,2.35
2019-04-26T07:20:04.379Z,2.05
2019-04-26T07:21:23.577Z,2.55
2019-04-26T07:22:54.405Z,2.05
2019-04-26T07:24:26.999Z,1.57
2019-04-26T07:25:43.374Z,2.15
2019-04-26T07:26:58.141Z,2.22
2019-04-26T07:28:12.891Z,2.02
2019-04-26T07:29:30.525Z,2.52
2019-04-26T07:30:48.157Z,2.45
2019-04-26T07:32:05.807Z,2.62
2019-04-26T07:33:29.493Z,2.10
2019-04-26T07:34:45.172Z,2.70
2019-04-26T07:35:59.872Z,2.40
2019-04-26T07:37:17.265Z,2.05
2019-04-26T07:38:54.213Z,1.95
2019-04-26T07:40:32.365Z,2.27
2019-04-26T07:41:51.376Z,1.95
2019-04-26T07:43:12.627Z,1.98
2019-04-26T07:44:34.730Z,2.15
2019-04-26T07:46:06.024Z,2.37
2019-04-26T07:47:20.796Z,2.10
2019-04-26T07:48:41.499Z,2.10
2019-04-26T07:50:07.817Z,2.00
2019-04-26T07:51:38.737Z,1.90
2019-04-26T07:53:10.044Z,2.00
2019-04-26T07:54:42.948Z,2.00
2019-04-26T07:56:07.107Z,1.65
2019-04-26T07:57:39.788Z,1.77
2019-04-26T07:59:10.734Z,2.20
2019-04-26T08:00:27.142Z,1.90
2019-04-26T08:01:52.063Z,1.98
2019-04-26T08:03:08.763Z,2.12
2019-04-26T08:04:31.608Z,1.52
2019-04-26T08:06:02.963Z,1.90
2019-04-26T08:07:24.634Z,1.92
2019-04-26T08:08:39.350Z,2.10
2019-04-26T08:09:59.732Z,1.62
2019-04-26T08:11:16.073Z,1.70
2019-04-26T08:12:29.164Z,2.65
2019-04-26T08:13:46.541Z,1.82
2019-04-26T08:15:11.597Z,2.00
2019-04-26T08:16:32.043Z,1.67
2019-04-26T08:17:55.607Z,1.57
2019-04-26T08:19:10.670Z,1.52
2019-04-26T08:20:33.120Z,1.80
2019-04-26T08:21:47.958Z,1.82
2019-04-26T08:23:08.996Z,1.62
2019-04-26T08:24:22.298Z,1.72
2019-04-26T08:25:35.829Z,1.72
2019-04-26T08:26:53.442Z,1.95
2019-04-26T08:28:07.361Z,1.62
2019-04-26T08:29:21.453Z,1.65
2019-04-26T08:30:34.520Z,1.65
2019-04-26T08:31:48.363Z,1.32
2019-04-26T08:33:02.175Z,1.50
2019-04-26T08:34:20.617Z,1.82
2019-04-26T08:35:31.964Z,1.87
2019-04-26T08:36:46.676Z,1.40
2019-04-26T08:38:01.369Z,1.40
2019-04-26T08:39:18.097Z,1.55
2019-04-26T08:40:31.536Z,1.55
2019-04-26T08:41:46.101Z,1.35
2019-04-26T08:43:16.219Z,1.30
2019-04-26T08:44:34.538Z,1.57
2019-04-26T08:46:01.794Z,1.20
2019-04-26T08:47:25.936Z,1.60
2019-04-26T08:48:36.588Z,1.52
2019-04-26T08:50:12.266Z,1.85
2019-04-26T08:51:24.727Z,1.32
2019-04-26T08:52:37.872Z,1.45
2019-04-26T08:53:51.811Z,1.40
2019-04-26T08:55:05.337Z,1.90
2019-04-26T08:56:20.469Z,1.30
2019-04-26T08:57:34.418Z,1.62
2019-04-26T08:58:48.053Z,1.45
2019-04-26T09:00:01.130Z,1.40
2019-04-26T09:01:22.813Z,1.30
2019-04-26T09:02:49.688Z,1.50
2019-04-26T09:04:10.403Z,1.72
2019-04-26T09:05:26.442Z,1.55
2019-04-26T09:06:46.964Z,1.20
2019-04-26T09:08:00.064Z,1.70
2019-04-26T09:09:18.292Z,1.45
2019-04-26T09:10:29.896Z,1.62
2019-04-26T09:11:42.981Z,1.60
2019-04-26T09:12:56.071Z,1.80
2019-04-26T09:14:09.199Z,1.65
2019-04-26T09:15:32.720Z,1.70
2019-04-26T09:16:50.294Z,1.30
2019-04-26T09:18:02.163Z,1.47
2019-04-26T09:19:15.387Z,1.60
2019-04-26T09:20:29.886Z,1.50
2019-04-26T09:21:47.543Z,1.82
2019-04-26T09:23:07.240Z,1.25
2019-04-26T09:24:24.928Z,1.92
2019-04-26T09:25:39.316Z,1.57
2019-04-26T09:26:57.050Z,1.30
2019-04-26T09:28:17.816Z,1.30
2019-04-26T09:29:38.536Z,1.52
2019-04-26T09:30:53.241Z,1.72
2019-04-26T09:32:07.983Z,1.77
2019-04-26T09:33:22.726Z,1.60
2019-04-26T09:34:43.036Z,1.47
2019-04-26T09:35:56.113Z,1.75
2019-04-26T09:37:09.749Z,1.55
2019-04-26T09:38:22.820Z,1.77
2019-04-26T09:39:35.904Z,1.87
2019-04-26T09:40:52.621Z,2.42
2019-04-26T09:42:15.049Z,2.05
2019-04-26T09:43:29.717Z,2.40
2019-04-26T09:44:49.914Z,1.90
2019-04-26T09:46:04.624Z,2.17
2019-04-26T09:47:24.750Z,2.12
2019-04-26T09:48:42.380Z,2.47
2019-04-26T09:50:03.111Z,2.25
2019-04-26T09:51:16.180Z,2.55
2019-04-26T09:52:30.909Z,2.70
2019-04-26T09:53:44.791Z,2.22
2019-04-26T09:54:57.933Z,2.55
2019-04-26T09:56:11.008Z,2.40
2019-04-26T09:57:24.099Z,2.77
2019-04-26T09:58:37.168Z,2.80
2019-04-26T09:59:50.239Z,2.70
2019-04-26T10:01:06.050Z,2.72
2019-04-26T10:02:18.387Z,2.87
2019-04-26T10:03:34.217Z,2.58
2019-04-26T10:04:46.266Z,2.62
2019-04-26T10:05:59.339Z,2.67
2019-04-26T10:07:12.422Z,2.80
2019-04-26T10:08:25.628Z,3.20
2019-04-26T10:09:38.700Z,2.55
2019-04-26T10:10:52.524Z,3.12
2019-04-26T10:12:16.196Z,2.80
2019-04-26T10:13:36.921Z,2.52
2019-04-26T10:14:57.396Z,2.58
2019-04-26T10:16:14.644Z,2.12
2019-04-26T10:17:29.384Z,2.40
2019-04-26T10:18:44.084Z,2.62
2019-04-26T10:19:57.160Z,2.60
2019-04-26T10:21:10.232Z,2.15
2019-04-26T10:22:24.567Z,2.20
2019-04-26T10:23:37.836Z,2.12
2019-04-26T10:24:50.904Z,1.90
2019-04-26T10:26:04.049Z,2.30
2019-04-26T10:27:17.147Z,1.90
2019-04-26T10:28:30.217Z,1.95
2019-04-26T10:29:43.316Z,2.15
2019-04-26T10:30:56.385Z,2.08
2019-04-26T10:32:09.462Z,2.10
2019-04-26T10:33:22.531Z,2.20
2019-04-26T10:34:35.595Z,2.15
2019-04-26T10:35:48.684Z,2.02
2019-04-26T10:37:05.945Z,1.90
2019-04-26T10:38:19.280Z,2.00
2019-04-26T10:39:32.545Z,2.37
2019-04-26T10:40:46.445Z,2.27
2019-04-26T10:41:59.531Z,2.30
2019-04-26T10:43:13.078Z,2.05
2019-04-26T10:44:26.980Z,2.02
2019-04-26T10:45:40.064Z,1.65
2019-04-26T10:46:55.602Z,1.72
2019-04-26T10:48:09.686Z,1.80
2019-04-26T10:49:36.141Z,1.72
2019-04-26T10:50:49.232Z,1.77
2019-04-26T10:52:02.313Z,1.52
2019-04-26T10:53:17.032Z,1.57
2019-04-26T10:54:30.168Z,1.77
2019-04-26T10:55:46.494Z,1.32
2019-04-26T10:57:01.332Z,1.45
2019-04-26T10:58:18.913Z,1.12
2019-04-26T10:59:33.697Z,1.20
2019-04-26T11:00:57.220Z,1.22
2019-04-26T11:02:11.928Z,1.32
2019-04-26T11:03:25.008Z,1.30
2019-04-26T11:04:41.447Z,2.00
2019-04-26T11:05:53.621Z,1.67
2019-04-26T11:07:07.697Z,1.27
2019-04-26T11:08:20.760Z,1.10
2019-04-26T11:09:33.841Z,1.12
2019-04-26T11:10:48.872Z,0.85
2019-04-26T11:12:01.734Z,1.27
2019-04-26T11:13:14.801Z,1.02
2019-04-26T11:14:27.884Z,1.30
2019-04-26T11:15:41.004Z,0.95
2019-04-26T11:16:54.080Z,1.10
2019-04-26T11:18:07.161Z,1.20
2019-04-26T11:19:20.221Z,1.00
2019-04-26T11:20:33.248Z,1.07
2019-04-26T11:21:46.296Z,0.85
2019-04-26T11:22:59.527Z,1.00
2019-04-26T11:24:15.109Z,1.15
2019-04-26T11:25:28.179Z,0.90
2019-04-26T11:26:42.692Z,1.37
2019-04-26T11:27:56.320Z,0.90
2019-04-26T11:29:09.578Z,0.85
2019-04-26T11:30:22.856Z,0.88
2019-04-26T11:31:36.175Z,1.00
2019-04-26T11:32:49.453Z,1.37
2019-04-26T11:34:05.570Z,1.12
2019-04-26T11:35:17.675Z,1.40
2019-04-26T11:36:31.028Z,1.10
2019-04-26T11:37:46.267Z,1.00
2019-04-26T11:39:01.354Z,1.20
2019-04-26T11:40:15.612Z,0.80
2019-04-26T11:41:29.041Z,0.90
2019-04-26T11:42:45.667Z,0.78
2019-04-26T11:43:57.289Z,0.78
2019-04-26T11:45:14.584Z,0.70
2019-04-26T11:46:29.155Z,1.20
2019-04-26T11:47:49.087Z,0.98
2019-04-26T11:48:59.288Z,0.75
2019-04-26T11:50:12.399Z,0.90
2019-04-26T11:51:27.627Z,0.60
2019-04-26T11:52:41.464Z,0.60
2019-04-26T11:53:54.719Z,0.80
2019-04-26T11:55:07.981Z,0.75
2019-04-26T11:56:21.249Z,0.62
2019-04-26T11:57:34.522Z,0.80
2019-04-26T11:58:47.772Z,0.68
2019-04-26T12:00:01.414Z,0.72
2019-04-26T12:01:17.653Z,0.72
2019-04-26T12:02:32.559Z,0.80
2019-04-26T12:03:59.426Z,0.65
2019-04-26T12:05:29.519Z,0.80
2019-04-26T12:06:47.144Z,0.90
2019-04-26T12:08:02.136Z,0.80
2019-04-26T12:09:20.082Z,0.70
2019-04-26T12:10:33.341Z,0.90
2019-04-26T12:11:49.625Z,0.88
2019-04-26T12:13:05.818Z,0.85
2019-04-26T12:14:20.387Z,1.10
2019-04-26T12:15:31.555Z,0.90
2019-04-26T12:16:49.420Z,1.10
2019-04-26T12:17:59.840Z,0.75
2019-04-26T12:19:14.295Z,1.20
2019-04-26T12:20:28.462Z,0.80
2019-04-26T12:21:41.870Z,0.90
2019-04-26T12:22:55.385Z,0.93
2019-04-26T12:24:08.669Z,1.10
2019-04-26T12:25:21.922Z,1.00
2019-04-26T12:26:42.663Z,0.88
2019-04-26T12:27:53.350Z,0.70
2019-04-26T12:29:05.129Z,1.32
2019-04-26T12:30:18.411Z,0.90
2019-04-26T12:31:32.418Z,0.90
2019-04-26T12:32:45.701Z,1.65
2019-04-26T12:33:59.021Z,0.80
2019-04-26T12:35:12.272Z,0.75
2019-04-26T12:36:25.552Z,0.90
2019-04-26T12:37:38.883Z,0.70
2019-04-26T12:38:52.144Z,0.80
2019-04-26T12:40:07.234Z,0.70
2019-04-26T12:41:36.559Z,0.60
2019-04-26T12:42:35.912Z,0.65
2019-04-26T12:43:49.168Z,0.80
2019-04-26T12:45:16.670Z,0.90
2019-04-26T12:46:35.765Z,0.75
2019-04-26T12:47:53.435Z,0.90
2019-04-26T12:49:06.698Z,0.85
2019-04-26T12:50:19.956Z,0.90
2019-04-26T12:51:33.836Z,1.22
2019-04-26T12:52:47.140Z,0.90
2019-04-26T12:54:03.747Z,0.78
2019-04-26T12:55:18.330Z,0.90
2019-04-26T12:56:31.270Z,0.80
2019-04-26T12:57:45.601Z,0.82
2019-04-26T12:58:58.883Z,1.05
2019-04-26T13:00:13.778Z,0.82
2019-04-26T13:01:27.028Z,1.07
2019-04-26T13:02:40.284Z,1.07
2019-04-26T13:04:07.279Z,1.17
2019-04-26T13:05:20.656Z,0.90
2019-04-26T13:06:36.349Z,1.00
2019-04-26T13:07:53.735Z,0.95
2019-04-26T13:09:11.885Z,1.00
2019-04-26T13:10:44.888Z,0.93
2019-04-26T13:11:59.402Z,1.00
2019-04-26T13:13:14.300Z,1.00
2019-04-26T13:14:45.266Z,0.82
2019-04-26T13:16:12.212Z,0.70
2019-04-26T13:17:37.409Z,0.90
2019-04-26T13:18:50.762Z,0.98
2019-04-26T13:20:05.964Z,0.70
2019-04-26T13:21:19.240Z,0.80
2019-04-26T13:22:45.306Z,1.45
2019-04-26T13:23:48.254Z,0.85
2019-04-26T13:25:01.725Z,0.80
2019-04-26T13:26:15.059Z,0.65
2019-04-26T13:27:28.404Z,0.70
2019-04-26T13:28:41.659Z,0.60
2019-04-26T13:30:02.605Z,1.00
2019-04-26T13:31:10.136Z,0.75
2019-04-26T13:32:23.400Z,0.70
2019-04-26T13:33:36.677Z,0.65
2019-04-26T13:34:49.955Z,0.50
2019-04-26T13:36:03.432Z,0.60
2019-04-26T13:37:16.573Z,0.80
2019-04-26T13:38:29.824Z,0.60
2019-04-26T13:39:42.869Z,0.60
2019-04-26T13:40:59.693Z,0.40
2019-04-26T13:42:13.641Z,0.53
2019-04-26T13:43:26.958Z,0.60
2019-04-26T13:44:51.503Z,0.65
2019-04-26T13:46:15.511Z,0.95
2019-04-26T13:47:36.159Z,0.62
2019-04-26T13:48:54.040Z,0.75
2019-04-26T13:50:08.937Z,0.80
2019-04-26T13:51:32.735Z,0.68
2019-04-26T13:52:45.995Z,0.70
2019-04-26T13:53:59.270Z,1.00
2019-04-26T13:55:12.531Z,0.68
2019-04-26T13:56:25.780Z,0.75
2019-04-26T13:57:40.283Z,0.80
2019-04-26T13:58:54.406Z,0.75
2019-04-26T14:00:11.693Z,0.40
2019-04-26T14:01:25.065Z,0.45
2019-04-26T14:02:38.327Z,0.62
2019-04-26T14:03:51.582Z,0.60
2019-04-26T14:05:05.105Z,0.45
2019-04-26T14:06:18.372Z,0.50
2019-04-26T14:07:31.629Z,0.60
2019-04-26T14:08:44.883Z,0.30
2019-04-26T14:09:58.140Z,0.55
2019-04-26T14:11:11.416Z,0.33
2019-04-26T14:12:24.671Z,0.70
2019-04-26T14:13:37.925Z,0.50
2019-04-26T14:14:51.185Z,0.40
2019-04-26T14:16:04.520Z,0.37
2019-04-26T14:17:17.875Z,0.68
2019-04-26T14:18:34.509Z,0.50
2019-04-26T14:19:49.515Z,0.60
2019-04-26T14:21:01.956Z,0.70
2019-04-26T14:22:16.865Z,0.60
2019-04-26T14:23:34.822Z,0.62
2019-04-26T14:24:52.995Z,0.42
2019-04-26T14:26:09.058Z,0.60
2019-04-26T14:27:23.946Z,0.50
2019-04-26T14:28:37.215Z,0.60
2019-04-26T14:29:50.576Z,0.53
2019-04-26T14:31:03.897Z,0.60
2019-04-26T14:32:17.164Z,0.68
2019-04-26T14:33:30.894Z,0.40
2019-04-26T14:34:45.424Z,0.55
2019-04-26T14:35:58.702Z,0.50
2019-04-26T14:37:15.575Z,0.50
2019-04-26T14:38:28.013Z,0.50
2019-04-26T14:39:50.321Z,0.50
2019-04-26T14:41:04.097Z,0.50
2019-04-26T14:42:11.924Z,0.60
2019-04-26T14:43:25.316Z,0.70
2019-04-26T14:44:48.857Z,0.55
2019-04-26T14:45:56.051Z,0.60
2019-04-26T14:47:14.879Z,0.80
2019-04-26T14:48:35.288Z,0.50
2019-04-26T14:49:41.409Z,0.80
2019-04-26T14:50:53.492Z,0.65
2019-04-26T14:52:06.773Z,0.50
2019-04-26T14:53:20.024Z,0.30
2019-04-26T14:54:34.008Z,0.70
2019-04-26T14:55:47.263Z,0.80
2019-04-26T14:57:07.122Z,0.62
2019-04-26T14:58:15.685Z,0.75
2019-04-26T14:59:46.964Z,0.70
2019-04-26T15:01:03.146Z,0.80
2019-04-26T15:02:34.211Z,0.78
2019-04-26T15:04:05.517Z,0.90
2019-04-26T15:05:22.950Z,0.90
2019-04-26T15:06:37.921Z,1.22
2019-04-26T15:07:53.564Z,0.80
2019-04-26T15:09:17.214Z,0.75
2019-04-26T15:10:22.783Z,0.85
2019-04-26T15:11:37.046Z,0.80
2019-04-26T15:12:56.701Z,0.98
2019-04-26T15:14:05.432Z,0.95
2019-04-26T15:15:18.765Z,0.82
2019-04-26T15:16:32.797Z,0.80
2019-04-26T15:17:47.538Z,0.75
2019-04-26T15:19:00.794Z,0.90
2019-04-26T15:20:16.780Z,1.10
2019-04-26T15:21:31.786Z,0.80
2019-04-26T15:22:48.545Z,0.80
2019-04-26T15:23:59.421Z,1.02
2019-04-26T15:25:13.670Z,0.95
2019-04-26T15:26:29.850Z,0.90
2019-04-26T15:27:42.139Z,1.00
2019-04-26T15:28:56.929Z,1.42
2019-04-26T15:30:10.256Z,0.88
2019-04-26T15:31:25.048Z,0.90
2019-04-26T15:32:39.029Z,1.40
2019-04-26T15:33:52.817Z,1.12
2019-04-26T15:35:06.213Z,1.00
2019-04-26T15:36:19.482Z,1.50
2019-04-26T15:37:32.816Z,1.27
2019-04-26T15:38:47.451Z,1.17
2019-04-26T15:40:12.722Z,1.10
2019-04-26T15:41:27.753Z,0.98
2019-04-26T15:42:45.635Z,0.93
2019-04-26T15:44:00.526Z,0.90
2019-04-26T15:45:15.446Z,0.98
2019-04-26T15:46:33.476Z,1.10
2019-04-26T15:47:54.529Z,1.00
2019-04-26T15:49:12.580Z,1.40
2019-04-26T15:50:41.013Z,1.05
2019-04-26T15:51:56.417Z,0.90
2019-04-26T15:53:12.766Z,0.95
2019-04-26T15:54:24.487Z,2.35
2019-04-26T15:55:40.090Z,1.35
2019-04-26T15:56:53.774Z,1.05
2019-04-26T15:58:08.474Z,1.47
2019-04-26T15:59:25.380Z,1.12
2019-04-26T16:00:37.757Z,1.55
2019-04-26T16:01:52.098Z,1.42
2019-04-26T16:03:07.313Z,1.17
2019-04-26T16:04:22.174Z,1.00
2019-04-26T16:05:35.436Z,1.12
2019-04-26T16:06:48.689Z,1.07
2019-04-26T16:08:20.216Z,1.25
2019-04-26T16:09:33.465Z,1.30
2019-04-26T16:10:46.729Z,1.40
2019-04-26T16:11:59.988Z,1.42
2019-04-26T16:13:21.059Z,1.10
2019-04-26T16:14:31.255Z,1.00
2019-04-26T16:15:48.342Z,1.25
2019-04-26T16:17:02.182Z,0.90
2019-04-26T16:18:17.043Z,1.30
2019-04-26T16:19:28.448Z,1.87
2019-04-26T16:20:42.840Z,1.10
2019-04-26T16:21:56.716Z,0.95
2019-04-26T16:23:09.994Z,1.30
2019-04-26T16:24:24.115Z,1.20
2019-04-26T16:25:39.192Z,1.40
2019-04-26T16:26:55.856Z,1.20
2019-04-26T16:28:25.593Z,1.25
2019-04-26T16:29:43.440Z,1.10
2019-04-26T16:31:10.952Z,1.15
2019-04-26T16:32:29.691Z,1.60
2019-04-26T16:33:44.846Z,1.27
2019-04-26T16:34:58.160Z,1.30
2019-04-26T16:36:11.479Z,1.10
2019-04-26T16:37:24.740Z,1.10
2019-04-26T16:38:38.391Z,1.10
2019-04-26T16:39:51.641Z,1.27
2019-04-26T16:41:05.221Z,1.50
2019-04-26T16:42:18.558Z,0.98
2019-04-26T16:43:37.696Z,1.00
2019-04-26T16:44:46.886Z,1.10
2019-04-26T16:46:00.186Z,0.93
2019-04-26T16:47:13.763Z,0.90
2019-04-26T16:48:27.160Z,1.20
2019-04-26T16:49:41.779Z,1.52
2019-04-26T16:50:55.411Z,1.15
2019-04-26T16:52:08.744Z,1.00
2019-04-26T16:53:37.951Z,0.95
2019-04-26T16:54:37.059Z,0.85
2019-04-26T16:57:11.214Z,1.00
2019-04-26T16:58:20.444Z,0.90
2019-04-26T16:59:34.169Z,1.10
2019-04-26T17:00:46.837Z,1.22
2019-04-26T17:00:59.516Z,1.27
2019-04-26T17:02:02.896Z,1.00
2019-04-26T17:03:16.362Z,1.00
2019-04-26T17:04:32.278Z,0.80
2019-04-26T17:05:48.328Z,0.88
2019-04-26T17:07:02.860Z,0.80
2019-04-26T17:08:18.971Z,0.90
2019-04-26T17:09:52.307Z,0.85
2019-04-26T17:10:44.770Z,1.00